Time;durP1;ratioP1;P1;durP2;ratioP2;P2;SDS_P1;SDS_P2;PMS_P1;PMS_P2;Temp;Humidity;BMP_temperature;BMP_pressure;BME280_temperature;BME280_humidity;BME280_pressure;Samples;Min_cycle;Max_cycle;Signal;HPM_P1;HPM_P2
2024/02/05 00:00:10;;;;;;;1.20;1.10;;;;;;;6.27;80.96;95253.70;106708;1275;24450;-77
2024/02/05 00:02:59;;;;;;;1.10;1.00;;;;;;;6.25;80.94;95260.88;106798;1275;25345;-77
2024/02/05 00:05:29;;;;;;;2.20;1.20;;;;;;;6.25;80.82;95258.08;106661;1275;25298;-77
2024/02/05 00:07:57;;;;;;;1.50;1.30;;;;;;;6.24;80.94;95249.16;106609;1275;23780;-77
2024/02/05 00:10:27;;;;;;;1.80;1.60;;;;;;;6.24;80.96;95245.33;106624;1275;25255;-77
2024/02/05 00:12:56;;;;;;;2.10;1.50;;;;;;;6.24;80.83;95239.73;106657;1275;24215;-77
2024/02/05 00:15:24;;;;;;;1.50;1.40;;;;;;;6.24;80.99;95242.19;106833;1275;22675;-77
2024/02/05 00:17:52;;;;;;;1.20;1.10;;;;;;;6.23;80.90;95244.13;106683;1275;24514;-77
2024/02/05 00:20:20;;;;;;;1.30;1.20;;;;;;;6.26;80.65;95249.51;106630;1275;22541;-77
2024/02/05 00:22:49;;;;;;;1.40;1.30;;;;;;;6.30;80.51;95241.45;106596;1275;22536;-77
2024/02/05 00:25:19;;;;;;;1.60;1.50;;;;;;;6.29;80.64;95247.73;106633;1274;23881;-76
2024/02/05 00:27:48;;;;;;;2.60;1.50;;;;;;;6.29;80.82;95250.02;106645;1275;25431;-78
2024/02/05 00:30:17;;;;;;;2.60;1.20;;;;;;;6.27;80.98;95238.67;106625;1274;25338;-77
2024/02/05 00:32:45;;;;;;;1.60;1.50;;;;;;;6.27;80.83;95235.54;106572;1275;24401;-76
2024/02/05 00:35:13;;;;;;;1.20;1.10;;;;;;;6.28;80.93;95234.13;106641;1275;24836;-78
2024/02/05 00:37:42;;;;;;;1.30;1.20;;;;;;;6.27;80.84;95241.48;106618;1275;22637;-78
2024/02/05 00:40:12;;;;;;;1.30;1.20;;;;;;;6.31;80.61;95249.30;106635;1275;22517;-77
2024/02/05 00:42:40;;;;;;;1.20;1.10;;;;;;;6.31;80.45;95247.38;106688;1275;22516;-78
2024/02/05 00:45:09;;;;;;;1.80;1.70;;;;;;;6.33;80.38;95238.64;106603;1275;24377;-77
2024/02/05 00:47:37;;;;;;;1.50;1.20;;;;;;;6.33;80.33;95230.42;106597;1275;23878;-77
2024/02/05 00:50:06;;;;;;;1.30;1.20;;;;;;;6.34;80.18;95242.98;106798;1275;22644;-79
2024/02/05 00:52:34;;;;;;;1.60;1.50;;;;;;;6.35;80.10;95231.98;106602;1275;22616;-77
2024/02/05 00:55:03;;;;;;;1.90;1.40;;;;;;;6.35;80.15;95237.58;106637;1275;22530;-77
2024/02/05 00:57:31;;;;;;;1.60;1.40;;;;;;;6.34;80.20;95239.33;106735;1271;25437;-77
2024/02/05 01:00:00;;;;;;;1.40;1.30;;;;;;;6.32;80.19;95239.52;106596;1275;25354;-76
2024/02/05 01:02:28;;;;;;;1.40;1.20;;;;;;;6.31;80.26;95234.45;106613;1275;22517;-76
2024/02/05 01:04:56;;;;;;;1.50;1.40;;;;;;;6.29;80.29;95231.33;106789;1275;22524;-77
2024/02/05 01:07:26;;;;;;;1.90;1.70;;;;;;;6.32;79.82;95225.37;106689;1275;24429;-78
2024/02/05 01:09:54;;;;;;;1.50;1.20;;;;;;;6.35;79.81;95230.58;106689;1275;24260;-78
2024/02/05 01:12:22;;;;;;;2.30;1.90;;;;;;;6.33;79.89;95234.78;106587;1275;22547;-77
2024/02/05 01:14:50;;;;;;;1.50;1.40;;;;;;;6.34;79.94;95234.09;106708;1275;22637;-76
2024/02/05 01:17:19;;;;;;;1.60;1.50;;;;;;;6.33;79.88;95237.92;106876;1275;22523;-78
2024/02/05 01:19:48;;;;;;;1.60;1.10;;;;;;;6.34;80.04;95237.05;106634;1275;22602;-76
2024/02/05 01:22:17;;;;;;;1.50;1.40;;;;;;;6.32;79.94;95230.42;106583;1275;25391;-76
2024/02/05 01:24:45;;;;;;;1.50;1.30;;;;;;;6.31;79.93;95223.10;106685;1274;25947;-77
2024/02/05 01:27:14;;;;;;;1.30;1.20;;;;;;;6.31;79.96;95225.19;106682;1275;22662;-77
2024/02/05 01:29:42;;;;;;;1.80;1.70;;;;;;;6.32;79.89;95213.13;106604;1275;22529;-77
2024/02/05 01:32:13;;;;;;;1.50;1.40;;;;;;;6.32;79.96;95188.86;106670;1275;25538;-77
2024/02/05 01:34:42;;;;;;;1.90;1.10;;;;;;;6.31;79.94;95183.44;107005;1275;24260;-78
2024/02/05 01:37:10;;;;;;;1.70;1.10;;;;;;;6.29;79.86;95183.11;107003;1275;24253;-77
2024/02/05 01:39:39;;;;;;;1.40;1.30;;;;;;;6.29;79.93;95183.81;107033;1275;22533;-77
2024/02/05 01:42:07;;;;;;;2.00;1.40;;;;;;;6.28;80.13;95188.36;106843;1275;22517;-77
2024/02/05 01:44:36;;;;;;;1.80;1.50;;;;;;;6.27;80.10;95192.56;106803;1275;22523;-77
2024/02/05 01:47:04;;;;;;;2.40;1.60;;;;;;;6.27;80.38;95189.77;106621;1275;22620;-76
2024/02/05 01:49:33;;;;;;;3.20;1.50;;;;;;;6.23;81.12;95186.13;106623;1275;24509;-79
2024/02/05 01:52:05;;;;;;;1.60;1.50;;;;;;;6.22;81.29;95192.60;106678;1268;24223;-77
2024/02/05 01:54:36;;;;;;;2.00;1.60;;;;;;;6.17;81.92;95188.45;107015;1275;24744;-76
2024/02/05 01:57:09;;;;;;;1.80;1.70;;;;;;;6.14;82.01;95175.55;106693;1275;25490;-77
2024/02/05 01:59:39;;;;;;;2.30;1.30;;;;;;;6.10;82.33;95163.02;106865;1275;22497;-77
2024/02/05 02:02:09;;;;;;;1.00;0.90;;;;;;;6.07;82.75;95161.64;106743;1275;22524;-77
2024/02/05 02:04:37;;;;;;;1.70;1.60;;;;;;;6.04;82.90;95164.98;106650;1275;23281;-77
2024/02/05 02:07:10;;;;;;;1.90;1.30;;;;;;;6.00;83.25;95161.17;106746;1275;22533;-77
2024/02/05 02:09:38;;;;;;;1.70;1.30;;;;;;;5.97;83.58;95160.67;106682;1275;22510;-78
2024/02/05 02:12:07;;;;;;;1.60;1.50;;;;;;;5.97;83.53;95159.63;106634;1275;25352;-77
2024/02/05 02:14:35;;;;;;;1.10;1.00;;;;;;;5.96;83.66;95162.09;106628;1275;22513;-77
2024/02/05 02:17:04;;;;;;;3.20;1.50;;;;;;;5.96;83.82;95153.70;106670;1275;25292;-78
2024/02/05 02:19:42;;;;;;;0.90;0.80;;;;;;;5.96;83.63;95149.86;106614;1275;22635;-77
2024/02/05 02:22:23;;;;;;;1.30;1.20;;;;;;;5.99;83.45;95146.16;106616;1275;22578;-77
2024/02/05 02:24:53;;;;;;;1.50;1.40;;;;;;;5.99;83.28;95132.36;106694;1275;22523;-77
2024/02/05 02:27:21;;;;;;;1.60;1.40;;;;;;;6.00;83.33;95132.73;106721;1275;22530;-79
2024/02/05 02:29:51;;;;;;;1.40;1.30;;;;;;;6.01;83.09;95125.20;106636;1275;22519;-78
2024/02/05 02:32:35;;;;;;;1.10;1.00;;;;;;;6.02;82.85;95119.78;106629;1275;23109;-78
2024/02/05 02:35:11;;;;;;;1.60;1.20;;;;;;;6.03;82.64;95111.05;106649;1275;25432;-78
2024/02/05 02:37:46;;;;;;;1.30;1.20;;;;;;;6.03;82.60;95119.42;106670;1275;22586;-76
2024/02/05 02:40:21;;;;;;;1.50;1.40;;;;;;;6.03;82.31;95116.27;106654;1275;22530;-78
2024/02/05 02:42:58;;;;;;;1.30;1.20;;;;;;;6.04;82.13;95102.83;107031;1275;24226;-77
2024/02/05 02:45:27;;;;;;;1.50;1.30;;;;;;;6.07;81.86;95099.83;106622;1275;22654;-77
2024/02/05 02:47:56;;;;;;;1.80;1.30;;;;;;;6.06;81.97;95101.05;106652;1275;24395;-77
2024/02/05 02:50:24;;;;;;;1.20;1.10;;;;;;;6.06;81.88;95105.07;106639;1275;22692;-78
2024/02/05 02:52:53;;;;;;;1.40;1.00;;;;;;;6.06;81.79;95110.84;106622;1275;23163;-77
2024/02/05 02:55:21;;;;;;;2.30;1.30;;;;;;;6.08;81.81;95115.36;106677;1271;24303;-77
2024/02/05 02:57:49;;;;;;;0.80;0.80;;;;;;;6.13;81.47;95114.45;106684;1275;25588;-78
2024/02/05 03:00:17;;;;;;;1.40;1.10;;;;;;;6.14;81.22;95105.88;106597;1275;22521;-78
2024/02/05 03:02:46;;;;;;;1.20;1.10;;;;;;;6.15;81.47;95103.60;106612;1275;25352;-77
2024/02/05 03:05:14;;;;;;;1.30;1.20;;;;;;;6.16;81.32;95100.27;106644;1275;22523;-77
2024/02/05 03:07:42;;;;;;;1.30;1.00;;;;;;;6.14;81.59;95091.20;106660;1275;22530;-78
2024/02/05 03:10:10;;;;;;;1.20;1.10;;;;;;;6.12;81.41;95091.92;106671;1275;22513;-78
2024/02/05 03:12:39;;;;;;;1.20;1.10;;;;;;;6.14;81.41;95084.92;106688;1275;25411;-78
2024/02/05 03:15:07;;;;;;;2.30;1.10;;;;;;;6.12;81.66;95082.84;106689;1275;22519;-78
2024/02/05 03:17:36;;;;;;;1.00;0.90;;;;;;;6.12;81.47;95083.02;106628;1275;24578;-79
2024/02/05 03:20:06;;;;;;;0.80;0.80;;;;;;;6.12;81.42;95081.10;106567;1275;22636;-78
2024/02/05 03:22:35;;;;;;;1.40;1.00;;;;;;;6.13;81.27;95087.89;106622;1275;22524;-78
2024/02/05 03:25:04;;;;;;;0.80;0.80;;;;;;;6.13;81.27;95084.40;106678;1275;22683;-78
2024/02/05 03:27:32;;;;;;;0.90;0.90;;;;;;;6.12;81.32;95090.36;106796;1275;25323;-77
2024/02/05 03:30:00;;;;;;;0.90;0.90;;;;;;;6.11;81.45;95091.06;106825;1275;25381;-77
2024/02/05 03:32:29;;;;;;;0.50;0.50;;;;;;;6.12;80.94;95097.69;106626;1275;24217;-77
2024/02/05 03:34:57;;;;;;;1.00;0.90;;;;;;;6.16;80.69;95089.45;106648;1275;22522;-79
2024/02/05 03:37:25;;;;;;;1.00;0.90;;;;;;;6.18;80.51;95092.56;106688;1275;22516;-77
2024/02/05 03:39:53;;;;;;;1.10;0.80;;;;;;;6.19;80.46;95097.27;106617;1275;22533;-77
2024/02/05 03:42:23;;;;;;;1.00;0.80;;;;;;;6.19;80.44;95104.95;106724;1275;24203;-77
2024/02/05 03:44:52;;;;;;;1.20;0.80;;;;;;;6.19;80.65;95106.52;106698;1275;24379;-76
2024/02/05 03:47:20;;;;;;;0.70;0.60;;;;;;;6.19;80.36;95109.13;106775;1275;25423;-77
2024/02/05 03:49:49;;;;;;;0.80;0.80;;;;;;;6.20;80.35;95108.45;106686;1275;23885;-77
2024/02/05 03:52:17;;;;;;;0.70;0.70;;;;;;;6.23;80.18;95101.77;106624;1275;25449;-76
2024/02/05 03:54:46;;;;;;;1.20;1.10;;;;;;;6.25;80.24;95094.95;106593;1275;22516;-76
2024/02/05 03:57:15;;;;;;;1.50;0.70;;;;;;;6.26;80.12;95095.80;106640;1275;24249;-76
2024/02/05 03:59:43;;;;;;;2.20;0.90;;;;;;;6.30;79.93;95096.12;106668;1271;22799;-77
2024/02/05 04:02:11;;;;;;;2.50;1.10;;;;;;;6.33;79.86;95094.00;106629;1275;24289;-77
2024/02/05 04:04:40;;;;;;;1.40;1.10;;;;;;;6.36;80.04;95089.42;106646;1275;25348;-78
2024/02/05 04:07:08;;;;;;;0.70;0.70;;;;;;;6.38;80.16;95091.16;106667;1274;22528;-78
2024/02/05 04:09:36;;;;;;;1.90;1.70;;;;;;;6.35;80.42;95091.19;106601;1275;24271;-76
2024/02/05 04:12:05;;;;;;;1.90;1.70;;;;;;;6.32;80.60;95097.33;106634;1275;24542;-76
2024/02/05 04:14:33;;;;;;;3.30;3.00;;;;;;;6.31;80.63;95096.47;106599;1263;22895;-77
2024/02/05 04:17:01;;;;;;;1.70;1.00;;;;;;;6.33;80.48;95097.14;106577;1275;22527;-78
2024/02/05 04:19:30;;;;;;;2.40;2.20;;;;;;;6.32;80.60;95093.13;106750;1275;25321;-77
2024/02/05 04:21:58;;;;;;;3.80;3.10;;;;;;;6.33;80.53;95103.43;106685;1275;22507;-77
2024/02/05 04:24:26;;;;;;;2.40;1.40;;;;;;;6.33;80.71;95110.77;106596;1275;24352;-76
2024/02/05 04:26:55;;;;;;;1.50;1.20;;;;;;;6.34;80.45;95114.60;106665;1275;22534;-76
2024/02/05 04:29:24;;;;;;;0.90;0.90;;;;;;;6.36;80.31;95113.17;106611;1275;22527;-77
2024/02/05 04:31:53;;;;;;;1.80;1.60;;;;;;;6.37;80.53;95106.17;106626;1275;22520;-76
2024/02/05 04:34:21;;;;;;;1.90;1.30;;;;;;;6.36;80.56;95107.23;106635;1275;22666;-77
2024/02/05 04:36:50;;;;;;;1.50;1.30;;;;;;;6.35;80.54;95100.96;106756;1275;22521;-76
2024/02/05 04:39:19;;;;;;;1.50;1.40;;;;;;;6.36;80.57;95103.58;106581;1275;24696;-77
2024/02/05 04:41:48;;;;;;;1.10;1.00;;;;;;;6.35;80.96;95094.86;106760;1275;25401;-77
2024/02/05 04:44:17;;;;;;;2.20;2.00;;;;;;;6.32;80.96;95086.14;106648;1275;22562;-76
2024/02/05 04:46:45;;;;;;;2.70;2.30;;;;;;;6.30;81.06;95080.58;106914;1275;24262;-77
2024/02/05 04:49:14;;;;;;;2.20;2.00;;;;;;;6.31;81.15;95087.71;106603;1275;23885;-76
2024/02/05 04:51:42;;;;;;;2.20;2.00;;;;;;;6.33;81.05;95082.12;106603;1275;25349;-75
2024/02/05 04:54:10;;;;;;;1.90;1.60;;;;;;;6.33;81.26;95084.39;106618;1275;22531;-79
2024/02/05 04:56:38;;;;;;;2.60;1.80;;;;;;;6.33;81.33;95091.20;106614;1275;23685;-77
2024/02/05 04:59:06;;;;;;;4.60;4.20;;;;;;;6.32;81.76;95095.23;106597;1275;22642;-76
2024/02/05 05:01:35;;;;;;;2.10;1.90;;;;;;;6.32;81.87;95093.66;106819;1275;25340;-76
2024/02/05 05:04:03;;;;;;;6.30;5.50;;;;;;;6.35;81.85;95089.25;106607;1275;22725;-76
2024/02/05 05:06:32;;;;;;;7.80;6.00;;;;;;;6.33;82.00;95084.55;106639;1275;22529;-76
2024/02/05 05:09:00;;;;;;;1.30;1.20;;;;;;;6.33;82.14;95093.83;106640;1275;25431;-76
2024/02/05 05:11:29;;;;;;;2.20;1.80;;;;;;;6.35;82.36;95096.77;106630;1275;22523;-76
2024/02/05 05:13:57;;;;;;;2.00;1.40;;;;;;;6.34;82.66;95087.17;106448;1275;22931;-76
2024/02/05 05:16:27;;;;;;;3.50;3.20;;;;;;;6.35;82.69;95092.41;106633;1275;22599;-76
2024/02/05 05:19:01;;;;;;;1.40;1.30;;;;;;;6.35;82.81;95095.55;106615;1272;22543;-76
2024/02/05 05:21:30;;;;;;;1.20;1.10;;;;;;;6.35;82.99;95089.95;106720;1275;22516;-76
2024/02/05 05:23:58;;;;;;;17.40;12.80;;;;;;;6.35;83.25;95091.71;106654;1275;22638;-77
2024/02/05 05:26:26;;;;;;;36.90;24.50;;;;;;;6.33;83.67;95091.73;106615;1275;22685;-76
2024/02/05 05:28:54;;;;;;;6.00;4.40;;;;;;;6.28;84.03;95090.89;106624;1275;22944;-76
2024/02/05 05:31:23;;;;;;;6.60;5.40;;;;;;;6.26;84.30;95086.90;106596;1275;22519;-76
2024/02/05 05:33:51;;;;;;;2.10;1.90;;;;;;;6.24;85.30;95084.48;106610;1275;25519;-78
2024/02/05 05:36:19;;;;;;;2.40;2.20;;;;;;;6.24;85.12;95091.98;106632;1275;22639;-77
2024/02/05 05:38:47;;;;;;;1.60;1.20;;;;;;;6.23;85.17;95096.72;106640;1275;24321;-77
2024/02/05 05:41:15;;;;;;;2.40;2.10;;;;;;;6.24;85.39;95094.95;106599;1275;22543;-76
2024/02/05 05:43:44;;;;;;;1.90;1.70;;;;;;;6.23;86.05;95090.42;106776;1275;22526;-77
2024/02/05 05:46:12;;;;;;;1.40;0.80;;;;;;;6.20;86.18;95090.11;106628;1275;22529;-77
2024/02/05 05:48:41;;;;;;;1.50;1.20;;;;;;;6.20;86.32;95092.37;106620;1265;25260;-76
2024/02/05 05:51:09;;;;;;;1.00;0.90;;;;;;;6.22;86.43;95100.21;106631;1275;22559;-77
2024/02/05 05:53:37;;;;;;;1.60;1.30;;;;;;;6.20;86.81;95093.60;106617;1275;25405;-76
2024/02/05 05:56:08;;;;;;;1.20;1.00;;;;;;;6.21;87.03;95089.23;106768;1264;22593;-77
2024/02/05 05:58:37;;;;;;;1.20;1.10;;;;;;;6.20;87.03;95084.33;106941;1275;22553;-78
2024/02/05 06:01:05;;;;;;;1.60;1.10;;;;;;;6.19;87.02;95087.66;107038;1275;22669;-77
2024/02/05 06:03:35;;;;;;;2.30;1.10;;;;;;;6.20;87.54;95089.40;106959;1275;22598;-78
2024/02/05 06:06:04;;;;;;;1.80;1.30;;;;;;;6.21;87.52;95091.84;106665;1275;22525;-78
2024/02/05 06:08:33;;;;;;;1.70;1.10;;;;;;;6.20;87.98;95097.07;106672;1275;22521;-78
2024/02/05 06:11:01;;;;;;;2.90;2.50;;;;;;;6.19;87.92;95102.50;106910;1275;22555;-78
2024/02/05 06:13:31;;;;;;;1.20;1.00;;;;;;;6.18;87.80;95111.27;106723;1275;22603;-75
2024/02/05 06:15:59;;;;;;;1.30;0.90;;;;;;;6.21;88.10;95114.19;107056;1275;22536;-77
2024/02/05 06:18:28;;;;;;;1.10;1.00;;;;;;;6.22;87.91;95124.14;106917;1275;25330;-79
2024/02/05 06:20:56;;;;;;;0.90;0.90;;;;;;;6.26;87.73;95130.04;106781;1275;22652;-78
2024/02/05 06:23:24;;;;;;;1.50;1.40;;;;;;;6.30;87.56;95130.70;106809;1275;25602;-76
2024/02/05 06:25:52;;;;;;;2.20;0.80;;;;;;;6.35;87.41;95129.27;106837;1269;24537;-78
2024/02/05 06:28:20;;;;;;;1.70;1.00;;;;;;;6.41;86.91;95130.41;106843;1275;22702;-80
2024/02/05 06:30:52;;;;;;;1.00;0.60;;;;;;;6.45;86.80;95124.43;106804;1275;24439;-77
2024/02/05 06:33:20;;;;;;;1.60;0.70;;;;;;;6.49;86.78;95123.87;106872;1264;22529;-78
2024/02/05 06:35:48;;;;;;;0.80;0.80;;;;;;;6.50;86.77;95117.57;106756;1275;22555;-77
2024/02/05 06:38:17;;;;;;;0.50;0.40;;;;;;;6.53;86.93;95104.08;106705;1275;24549;-77
2024/02/05 06:40:45;;;;;;;0.80;0.80;;;;;;;6.55;86.93;95110.89;106667;1275;22514;-78
2024/02/05 06:43:14;;;;;;;0.60;0.60;;;;;;;6.59;86.87;95109.79;106838;1275;25341;-77
2024/02/05 06:45:42;;;;;;;1.00;0.90;;;;;;;6.62;86.97;95108.72;106684;1271;22570;-77
2024/02/05 06:48:10;;;;;;;0.50;0.50;;;;;;;6.66;87.36;95103.42;106895;1275;22536;-78
2024/02/05 06:50:38;;;;;;;1.20;1.10;;;;;;;6.68;87.41;95103.05;106719;1275;22655;-77
2024/02/05 06:53:06;;;;;;;1.20;1.10;;;;;;;6.71;87.37;95114.21;106711;1275;24866;-75
2024/02/05 06:55:35;;;;;;;1.10;1.00;;;;;;;6.74;87.43;95109.10;106709;1271;22657;-78
2024/02/05 06:58:03;;;;;;;2.00;1.40;;;;;;;6.75;87.76;95112.58;106703;1275;22748;-79
2024/02/05 07:00:32;;;;;;;0.70;0.70;;;;;;;6.76;87.91;95113.97;106817;1275;22580;-82
2024/02/05 07:03:00;;;;;;;0.90;0.90;;;;;;;6.75;88.08;95112.04;106628;1275;22599;-79
2024/02/05 07:05:28;;;;;;;1.40;1.10;;;;;;;6.78;87.76;95116.91;107183;1275;22570;-76
2024/02/05 07:07:57;;;;;;;1.90;1.30;;;;;;;6.82;87.59;95125.61;106832;1275;25341;-76
2024/02/05 07:10:25;;;;;;;1.20;1.10;;;;;;;6.84;87.64;95133.09;106664;1273;22757;-76
2024/02/05 07:12:53;;;;;;;1.30;1.10;;;;;;;6.84;87.80;95137.83;106865;1276;22574;-77
2024/02/05 07:15:22;;;;;;;1.10;1.00;;;;;;;6.83;87.93;95130.66;106817;1276;22532;-76
2024/02/05 07:17:50;;;;;;;1.40;1.30;;;;;;;6.81;87.86;95128.23;106776;1276;22676;-76
2024/02/05 07:20:18;;;;;;;3.20;1.60;;;;;;;6.84;87.82;95114.23;108221;1276;22833;-76
2024/02/05 07:22:47;;;;;;;2.60;1.40;;;;;;;6.85;87.72;95117.36;106844;1276;25377;-75
2024/02/05 07:25:15;;;;;;;1.90;1.70;;;;;;;6.85;87.84;95111.24;106974;1274;24201;-75
2024/02/05 07:27:44;;;;;;;1.80;1.50;;;;;;;6.89;87.73;95110.15;106857;1276;22528;-77
2024/02/05 07:30:13;;;;;;;2.50;1.40;;;;;;;6.90;87.59;95116.95;106852;1276;22921;-78
2024/02/05 07:32:41;;;;;;;2.20;2.00;;;;;;;6.96;86.98;95116.54;106890;1274;22524;-79
2024/02/05 07:35:09;;;;;;;3.00;1.70;;;;;;;7.00;86.57;95115.95;107213;1274;23126;-77
2024/02/05 07:37:37;;;;;;;2.60;2.10;;;;;;;7.02;86.47;95112.42;107032;1274;22523;-77
2024/02/05 07:40:07;;;;;;;2.80;2.20;;;;;;;7.04;86.35;95118.35;106908;1274;22527;-79
2024/02/05 07:42:35;;;;;;;2.50;1.90;;;;;;;7.05;86.50;95112.74;107092;1272;23801;-78
2024/02/05 07:45:04;;;;;;;2.20;1.50;;;;;;;7.05;86.23;95116.59;106851;1274;22627;-76
2024/02/05 07:47:32;;;;;;;5.50;2.20;;;;;;;7.08;85.80;95120.05;106807;1274;25337;-77
2024/02/05 07:50:00;;;;;;;3.00;2.20;;;;;;;7.10;85.79;95119.66;106833;1274;24886;-77
2024/02/05 07:52:29;;;;;;;4.60;2.50;;;;;;;7.12;85.55;95140.64;107039;1274;22870;-78
2024/02/05 07:54:57;;;;;;;3.00;2.40;;;;;;;7.15;85.28;95115.40;106805;1274;23881;-78
2024/02/05 07:57:25;;;;;;;2.00;1.80;;;;;;;7.16;85.34;95116.98;106912;1274;24619;-79
2024/02/05 07:59:55;;;;;;;2.60;2.00;;;;;;;7.17;85.17;95117.31;107138;1274;22532;-81
2024/02/05 08:02:27;;;;;;;3.20;2.30;;;;;;;7.18;85.01;95118.36;106857;1274;471947;-79
2024/02/05 08:04:55;;;;;;;2.60;2.40;;;;;;;7.17;85.11;95123.27;106951;1274;22520;-79
2024/02/05 08:07:24;;;;;;;2.10;1.90;;;;;;;7.21;84.64;95129.15;106793;1274;25382;-79
2024/02/05 08:09:52;;;;;;;4.40;2.60;;;;;;;7.28;84.33;95120.48;106878;1275;24409;-76
2024/02/05 08:12:22;;;;;;;2.20;1.90;;;;;;;7.35;83.83;95121.45;106902;1274;22517;-77
2024/02/05 08:14:50;;;;;;;2.30;1.80;;;;;;;7.43;83.30;95109.25;106964;1274;22533;-77
2024/02/05 08:17:18;;;;;;;2.60;2.10;;;;;;;7.48;83.43;95112.16;106746;1274;22521;-77
2024/02/05 08:19:47;;;;;;;2.60;2.40;;;;;;;7.52;83.33;95117.02;106757;1275;24269;-78
2024/02/05 08:22:15;;;;;;;3.90;1.80;;;;;;;7.57;83.25;95109.59;106887;1274;25293;-79
2024/02/05 08:24:43;;;;;;;2.80;2.10;;;;;;;7.60;83.02;95098.85;106929;1270;22730;-77
2024/02/05 08:27:11;;;;;;;2.60;2.30;;;;;;;7.63;82.58;95091.83;106733;1261;25357;-79
2024/02/05 08:29:40;;;;;;;5.20;2.80;;;;;;;7.63;82.56;95096.55;106782;1274;22520;-78
2024/02/05 08:32:08;;;;;;;3.20;2.40;;;;;;;7.66;82.55;95094.92;106797;1274;24280;-79
2024/02/05 08:34:37;;;;;;;3.40;2.30;;;;;;;7.70;82.42;95093.80;106903;1274;22549;-80
2024/02/05 08:37:05;;;;;;;2.30;2.10;;;;;;;7.76;81.83;95097.56;107047;1274;22644;-78
2024/02/05 08:39:34;;;;;;;2.70;2.40;;;;;;;7.75;82.16;95089.18;106866;1274;24394;-78
2024/02/05 08:42:02;;;;;;;2.20;1.90;;;;;;;7.77;81.92;95092.11;106813;1274;22652;-82
2024/02/05 08:44:48;;;;;;;2.70;1.60;;;;;;;7.76;81.25;95095.65;106890;1274;22639;-78
2024/02/05 08:47:16;;;;;;;4.30;3.00;;;;;;;7.74;81.36;95088.49;106867;1274;22524;-77
2024/02/05 08:49:44;;;;;;;3.20;2.20;;;;;;;7.70;81.42;95102.20;106747;1274;22548;-78
2024/02/05 08:52:16;;;;;;;3.80;2.60;;;;;;;7.68;81.31;95111.86;106895;1274;22740;-79
2024/02/05 08:54:45;;;;;;;2.40;2.00;;;;;;;7.66;81.55;95096.14;106857;1274;22536;-79
2024/02/05 08:57:13;;;;;;;2.40;1.80;;;;;;;7.68;81.75;95088.23;106975;1274;24242;-78
2024/02/05 08:59:42;;;;;;;4.30;2.80;;;;;;;7.70;81.28;95075.77;106777;1274;22551;-80
2024/02/05 09:02:14;;;;;;;3.40;2.00;;;;;;;7.74;81.45;95077.63;106901;1274;22525;-78
2024/02/05 09:04:44;;;;;;;2.20;1.90;;;;;;;7.75;80.84;95081.13;106886;1274;22528;-79
2024/02/05 09:07:13;;;;;;;2.90;2.50;;;;;;;7.76;80.56;95080.75;107019;1274;24252;-79
2024/02/05 09:09:41;;;;;;;3.60;2.30;;;;;;;7.77;80.27;95076.89;106908;1274;25633;-79
2024/02/05 09:12:09;;;;;;;3.00;2.50;;;;;;;7.78;80.24;95092.98;106976;1274;22611;-79
2024/02/05 09:14:38;;;;;;;3.30;2.50;;;;;;;7.75;80.87;95112.63;106908;1274;22521;-79
2024/02/05 09:17:06;;;;;;;4.00;2.20;;;;;;;7.70;81.80;95127.94;106947;1271;22561;-78
2024/02/05 09:19:34;;;;;;;2.40;2.00;;;;;;;7.65;82.01;95119.27;106743;1274;25496;-78
2024/02/05 09:22:03;;;;;;;2.90;2.20;;;;;;;7.58;83.00;95114.30;106931;1270;22779;-80
2024/02/05 09:24:31;;;;;;;4.40;2.80;;;;;;;7.55;82.89;95107.85;106750;1274;24043;-78
2024/02/05 09:26:59;;;;;;;10.60;5.60;;;;;;;7.51;83.44;95106.70;106898;1274;22533;-76
2024/02/05 09:29:27;;;;;;;3.00;2.00;;;;;;;7.48;84.04;95101.84;106897;1274;24075;-77
2024/02/05 09:31:55;;;;;;;2.40;2.20;;;;;;;7.49;82.95;95102.34;106896;1274;22532;-78
2024/02/05 09:34:24;;;;;;;3.10;2.00;;;;;;;7.53;82.83;95123.83;107258;1274;22775;-78
2024/02/05 09:36:53;;;;;;;2.30;1.80;;;;;;;7.54;82.35;95119.95;107131;1274;22532;-80
2024/02/05 09:39:21;;;;;;;3.90;2.40;;;;;;;7.56;82.32;95123.79;106856;1274;24273;-77
2024/02/05 09:41:52;;;;;;;4.50;3.70;;;;;;;7.56;82.17;95124.11;106777;1274;24412;-78
2024/02/05 09:44:23;;;;;;;3.40;2.50;;;;;;;7.57;82.11;95128.48;106791;1275;22520;-77
2024/02/05 09:46:54;;;;;;;2.00;1.70;;;;;;;7.58;81.82;95128.47;106772;1274;22521;-76
2024/02/05 09:49:23;;;;;;;2.70;2.30;;;;;;;7.58;82.13;95117.45;106839;1274;22517;-77
2024/02/05 09:51:53;;;;;;;2.70;2.40;;;;;;;7.60;81.94;95116.02;108517;1274;22526;-78
2024/02/05 09:54:23;;;;;;;2.70;2.40;;;;;;;7.62;81.36;95126.48;107038;1274;23225;-79
2024/02/05 09:56:52;;;;;;;2.00;1.80;;;;;;;7.67;81.26;95110.14;106892;1274;25376;-77
2024/02/05 09:59:20;;;;;;;3.20;2.20;;;;;;;7.67;81.31;95113.99;106862;1274;25246;-77
2024/02/05 10:01:49;;;;;;;3.20;2.60;;;;;;;7.65;81.83;95098.27;106706;1274;22666;-78
2024/02/05 10:04:19;;;;;;;2.40;2.20;;;;;;;7.63;81.41;95095.85;106940;1274;22533;-76
2024/02/05 10:06:52;;;;;;;3.80;2.70;;;;;;;7.64;81.74;95100.21;106812;1274;22537;-77
2024/02/05 10:09:23;;;;;;;3.20;2.60;;;;;;;7.64;81.33;95103.01;106639;1274;24394;-77
2024/02/05 10:11:51;;;;;;;3.70;2.70;;;;;;;7.66;81.37;95101.59;106794;1274;24257;-76
2024/02/05 10:14:21;;;;;;;2.40;2.20;;;;;;;7.66;81.65;95102.98;106794;1274;22545;-78
2024/02/05 10:16:52;;;;;;;3.60;2.80;;;;;;;7.66;81.18;95092.81;106840;1263;22531;-77
2024/02/05 10:19:21;;;;;;;4.40;2.50;;;;;;;7.66;81.47;95095.63;106867;1274;25262;-77
2024/02/05 10:21:50;;;;;;;3.80;2.30;;;;;;;7.68;81.14;95095.42;106865;1274;22524;-77
2024/02/05 10:24:18;;;;;;;4.30;3.00;;;;;;;7.68;81.36;95109.77;107036;1274;24247;-76
2024/02/05 10:26:46;;;;;;;4.30;3.30;;;;;;;7.68;82.05;95106.61;106825;1267;24231;-78
2024/02/05 10:29:15;;;;;;;1.90;1.60;;;;;;;7.64;81.90;95115.79;106789;1263;22520;-76
2024/02/05 10:31:45;;;;;;;3.00;2.50;;;;;;;7.63;81.85;95112.83;106774;1274;22635;-77
2024/02/05 10:34:18;;;;;;;3.20;2.30;;;;;;;7.63;81.13;95106.52;106772;1274;22530;-75
2024/02/05 10:36:46;;;;;;;3.60;3.00;;;;;;;7.68;80.82;95101.73;106911;1268;25402;-77
2024/02/05 10:39:23;;;;;;;4.00;1.90;;;;;;;7.69;80.99;95103.80;106814;1274;25518;-76
2024/02/05 10:41:54;;;;;;;2.30;2.10;;;;;;;7.68;80.92;95106.61;106811;1274;22541;-76
2024/02/05 10:44:24;;;;;;;3.20;2.50;;;;;;;7.67;80.87;95113.48;106870;1274;22523;-77
2024/02/05 10:47:09;;;;;;;3.30;2.10;;;;;;;7.67;80.73;95114.68;106699;1274;25040;-76
2024/02/05 10:49:38;;;;;;;3.30;2.10;;;;;;;7.67;80.89;95119.41;106688;1274;22574;-78
2024/02/05 10:52:07;;;;;;;2.80;2.00;;;;;;;7.67;80.85;95126.23;106814;1274;22730;-77
2024/02/05 10:54:40;;;;;;;2.80;2.30;;;;;;;7.65;81.63;95132.77;106788;1274;24282;-77
2024/02/05 10:57:10;;;;;;;2.00;1.80;;;;;;;7.60;82.13;95122.66;106785;1274;22520;-76
2024/02/05 10:59:38;;;;;;;3.40;2.30;;;;;;;7.56;82.45;95126.04;106825;1274;25504;-77
2024/02/05 11:02:17;;;;;;;3.50;2.80;;;;;;;7.51;83.10;95107.73;106720;1274;22524;-76
2024/02/05 11:04:46;;;;;;;4.10;2.10;;;;;;;7.51;83.05;95097.77;106764;1274;22541;-76
2024/02/05 11:07:17;;;;;;;5.00;3.70;;;;;;;7.49;83.70;95097.27;106873;1274;25465;-76
2024/02/05 11:09:48;;;;;;;3.60;2.80;;;;;;;7.52;83.43;95101.09;106787;1274;24253;-75
2024/02/05 11:12:21;;;;;;;2.00;1.80;;;;;;;7.56;83.92;95102.06;106943;1274;25243;-76
2024/02/05 11:14:55;;;;;;;2.20;1.90;;;;;;;7.65;83.29;95107.35;106742;1274;25517;-76
2024/02/05 11:17:25;;;;;;;2.50;1.80;;;;;;;7.72;83.17;95116.01;106796;1274;22527;-76
2024/02/05 11:19:55;;;;;;;2.50;2.30;;;;;;;7.78;82.72;95111.37;106824;1274;25370;-76
2024/02/05 11:22:25;;;;;;;2.80;2.20;;;;;;;7.81;82.06;95118.33;106796;1274;22530;-77
2024/02/05 11:24:53;;;;;;;3.60;2.10;;;;;;;7.83;81.89;95120.39;106757;1274;24385;-77
2024/02/05 11:27:22;;;;;;;3.70;2.50;;;;;;;7.85;81.70;95135.41;106823;1274;22792;-78
2024/02/05 11:29:51;;;;;;;3.60;2.50;;;;;;;7.88;81.48;95135.20;106932;1274;22644;-78
2024/02/05 11:32:29;;;;;;;2.90;2.60;;;;;;;7.90;81.08;95155.48;106925;1274;22514;-78
2024/02/05 11:34:57;;;;;;;2.60;2.40;;;;;;;7.91;80.86;95135.14;107051;1274;22528;-77
2024/02/05 11:37:27;;;;;;;3.40;2.60;;;;;;;7.94;80.78;95132.83;106753;1274;22527;-78
2024/02/05 11:39:58;;;;;;;3.10;2.40;;;;;;;7.94;80.44;95126.88;106941;1274;25354;-77
2024/02/05 11:42:31;;;;;;;4.60;2.40;;;;;;;7.95;80.13;95127.39;106848;1274;25277;-76